Hudson, Wisconsin
Current Conditions -  °F | °C
As of 11:51 PM on Thursday 27 Nov 2014 (Local Time) from K21D Reporting Station
Light Snow Light Snow  
Wind Chill:   Ceiling: 2300
Heat Index: 10°   Visibility: 3mi
Dew Point:   Wind: 5mph
Humidity: 73%   Direction: 150°SSE
Pressure: 30.28"   Gusts: NA
Location:  44.98°N, 92.76°W
Report Text: K21D 280551Z AUTO 15004KT 3SM -SN OVC023 M12/M16 A3028 RMK AO2
Loading
Personal Weather Stations






























Interactive Weather Map New forecast layout! Learn more

10-Day Weather Forecast

Advertisements
Track Severe Weather on mobile